sensor_id;sensor_type;location;lat;lon;timestamp;P1;durP1;ratioP1;P2;durP2;ratioP2
12052;SDS011;6087;48.982;12.064;2022-11-23T00:02:20;15.07;;;11.07;;
12052;SDS011;6087;48.982;12.064;2022-11-23T00:04:47;17.73;;;11.43;;
12052;SDS011;6087;48.982;12.064;2022-11-23T00:07:14;14.53;;;10.13;;
12052;SDS011;6087;48.982;12.064;2022-11-23T00:09:41;12.50;;;10.03;;
12052;SDS011;6087;48.982;12.064;2022-11-23T00:12:08;16.53;;;10.77;;
12052;SDS011;6087;48.982;12.064;2022-11-23T00:14:35;14.43;;;10.40;;
12052;SDS011;6087;48.982;12.064;2022-11-23T00:17:03;13.03;;;10.20;;
12052;SDS011;6087;48.982;12.064;2022-11-23T00:19:30;14.43;;;10.13;;
12052;SDS011;6087;48.982;12.064;2022-11-23T00:21:57;18.33;;;10.37;;
12052;SDS011;6087;48.982;12.064;2022-11-23T00:24:24;12.40;;;9.37;;
12052;SDS011;6087;48.982;12.064;2022-11-23T00:26:51;15.87;;;9.93;;
12052;SDS011;6087;48.982;12.064;2022-11-23T00:29:18;13.70;;;9.60;;
12052;SDS011;6087;48.982;12.064;2022-11-23T00:31:45;20.50;;;10.27;;
12052;SDS011;6087;48.982;12.064;2022-11-23T00:34:14;14.90;;;10.27;;
12052;SDS011;6087;48.982;12.064;2022-11-23T00:36:41;14.67;;;9.60;;
12052;SDS011;6087;48.982;12.064;2022-11-23T00:39:08;17.73;;;9.40;;
12052;SDS011;6087;48.982;12.064;2022-11-23T00:41:35;13.43;;;8.37;;
12052;SDS011;6087;48.982;12.064;2022-11-23T00:44:02;11.13;;;8.50;;
12052;SDS011;6087;48.982;12.064;2022-11-23T00:46:29;13.80;;;8.63;;
12052;SDS011;6087;48.982;12.064;2022-11-23T00:48:56;10.73;;;8.63;;
12052;SDS011;6087;48.982;12.064;2022-11-23T00:51:26;13.87;;;10.23;;
12052;SDS011;6087;48.982;12.064;2022-11-23T00:53:54;14.10;;;9.43;;
12052;SDS011;6087;48.982;12.064;2022-11-23T00:56:21;11.60;;;8.70;;
12052;SDS011;6087;48.982;12.064;2022-11-23T00:58:49;11.57;;;7.97;;
12052;SDS011;6087;48.982;12.064;2022-11-23T01:01:17;11.83;;;8.87;;
12052;SDS011;6087;48.982;12.064;2022-11-23T01:03:47;9.57;;;7.70;;
12052;SDS011;6087;48.982;12.064;2022-11-23T01:06:15;12.80;;;8.50;;
12052;SDS011;6087;48.982;12.064;2022-11-23T01:08:48;12.83;;;8.87;;
12052;SDS011;6087;48.982;12.064;2022-11-23T01:11:16;10.77;;;8.27;;
12052;SDS011;6087;48.982;12.064;2022-11-23T01:13:44;10.43;;;8.50;;
12052;SDS011;6087;48.982;12.064;2022-11-23T01:16:12;12.63;;;8.33;;
12052;SDS011;6087;48.982;12.064;2022-11-23T01:18:40;11.20;;;8.70;;
12052;SDS011;6087;48.982;12.064;2022-11-23T01:21:07;13.10;;;8.77;;
12052;SDS011;6087;48.982;12.064;2022-11-23T01:23:35;12.80;;;9.03;;
12052;SDS011;6087;48.982;12.064;2022-11-23T01:26:06;8.93;;;7.53;;
12052;SDS011;6087;48.982;12.064;2022-11-23T01:28:35;13.70;;;10.13;;
12052;SDS011;6087;48.982;12.064;2022-11-23T01:31:03;11.63;;;8.70;;
12052;SDS011;6087;48.982;12.064;2022-11-23T01:33:31;11.47;;;8.30;;
12052;SDS011;6087;48.982;12.064;2022-11-23T01:35:58;12.03;;;8.77;;
12052;SDS011;6087;48.982;12.064;2022-11-23T01:38:25;11.20;;;8.77;;
12052;SDS011;6087;48.982;12.064;2022-11-23T01:40:52;13.40;;;8.90;;
12052;SDS011;6087;48.982;12.064;2022-11-23T01:43:20;11.97;;;8.20;;
12052;SDS011;6087;48.982;12.064;2022-11-23T01:45:56;13.13;;;8.97;;
12052;SDS011;6087;48.982;12.064;2022-11-23T01:48:25;14.07;;;8.10;;
12052;SDS011;6087;48.982;12.064;2022-11-23T01:50:55;12.80;;;9.27;;
12052;SDS011;6087;48.982;12.064;2022-11-23T01:53:25;11.97;;;8.73;;
12052;SDS011;6087;48.982;12.064;2022-11-23T01:55:53;11.43;;;8.53;;
12052;SDS011;6087;48.982;12.064;2022-11-23T01:58:27;11.87;;;8.97;;
12052;SDS011;6087;48.982;12.064;2022-11-23T02:00:57;13.03;;;8.17;;
12052;SDS011;6087;48.982;12.064;2022-11-23T02:03:24;12.43;;;8.90;;
12052;SDS011;6087;48.982;12.064;2022-11-23T02:05:53;11.03;;;8.70;;
12052;SDS011;6087;48.982;12.064;2022-11-23T02:08:25;10.20;;;8.23;;
12052;SDS011;6087;48.982;12.064;2022-11-23T02:10:54;12.30;;;8.80;;
12052;SDS011;6087;48.982;12.064;2022-11-23T02:13:23;11.03;;;8.30;;
12052;SDS011;6087;48.982;12.064;2022-11-23T02:15:54;13.63;;;8.23;;
12052;SDS011;6087;48.982;12.064;2022-11-23T02:18:23;13.47;;;8.93;;
12052;SDS011;6087;48.982;12.064;2022-11-23T02:20:53;10.70;;;8.47;;
12052;SDS011;6087;48.982;12.064;2022-11-23T02:23:25;10.00;;;8.20;;
12052;SDS011;6087;48.982;12.064;2022-11-23T02:26:01;12.57;;;8.20;;
12052;SDS011;6087;48.982;12.064;2022-11-23T02:28:31;9.73;;;7.87;;
12052;SDS011;6087;48.982;12.064;2022-11-23T02:31:02;9.30;;;8.33;;
12052;SDS011;6087;48.982;12.064;2022-11-23T02:33:29;10.57;;;8.10;;
12052;SDS011;6087;48.982;12.064;2022-11-23T02:35:56;11.87;;;8.30;;
12052;SDS011;6087;48.982;12.064;2022-11-23T02:38:25;10.83;;;8.10;;
12052;SDS011;6087;48.982;12.064;2022-11-23T02:40:55;12.33;;;8.83;;
12052;SDS011;6087;48.982;12.064;2022-11-23T02:43:24;10.17;;;8.13;;
12052;SDS011;6087;48.982;12.064;2022-11-23T02:45:52;13.40;;;8.93;;
12052;SDS011;6087;48.982;12.064;2022-11-23T02:48:21;12.13;;;9.43;;
12052;SDS011;6087;48.982;12.064;2022-11-23T02:50:48;14.87;;;8.87;;
12052;SDS011;6087;48.982;12.064;2022-11-23T02:53:17;10.47;;;8.07;;
12052;SDS011;6087;48.982;12.064;2022-11-23T02:55:44;13.90;;;8.80;;
12052;SDS011;6087;48.982;12.064;2022-11-23T02:58:11;10.43;;;8.33;;
12052;SDS011;6087;48.982;12.064;2022-11-23T03:00:39;12.63;;;8.43;;
12052;SDS011;6087;48.982;12.064;2022-11-23T03:03:06;11.07;;;8.40;;
12052;SDS011;6087;48.982;12.064;2022-11-23T03:05:33;16.43;;;9.17;;
12052;SDS011;6087;48.982;12.064;2022-11-23T03:08:00;13.70;;;9.07;;
12052;SDS011;6087;48.982;12.064;2022-11-23T03:10:27;11.43;;;8.77;;
12052;SDS011;6087;48.982;12.064;2022-11-23T03:12:54;14.00;;;9.00;;
12052;SDS011;6087;48.982;12.064;2022-11-23T03:15:22;9.23;;;8.23;;
12052;SDS011;6087;48.982;12.064;2022-11-23T03:17:51;12.93;;;8.57;;
12052;SDS011;6087;48.982;12.064;2022-11-23T03:20:18;11.77;;;7.87;;
12052;SDS011;6087;48.982;12.064;2022-11-23T03:22:45;10.33;;;8.47;;
12052;SDS011;6087;48.982;12.064;2022-11-23T03:25:12;10.97;;;8.00;;
12052;SDS011;6087;48.982;12.064;2022-11-23T03:27:39;14.80;;;9.33;;
12052;SDS011;6087;48.982;12.064;2022-11-23T03:30:07;11.97;;;8.33;;
12052;SDS011;6087;48.982;12.064;2022-11-23T03:32:35;12.73;;;9.70;;
12052;SDS011;6087;48.982;12.064;2022-11-23T03:35:04;13.87;;;8.93;;
12052;SDS011;6087;48.982;12.064;2022-11-23T03:37:31;12.87;;;9.23;;
12052;SDS011;6087;48.982;12.064;2022-11-23T03:39:59;11.30;;;8.17;;
12052;SDS011;6087;48.982;12.064;2022-11-23T03:42:26;10.80;;;8.73;;
12052;SDS011;6087;48.982;12.064;2022-11-23T03:44:52;12.03;;;8.30;;
12052;SDS011;6087;48.982;12.064;2022-11-23T03:47:19;11.87;;;8.17;;
12052;SDS011;6087;48.982;12.064;2022-11-23T03:49:47;11.20;;;8.80;;
12052;SDS011;6087;48.982;12.064;2022-11-23T03:52:15;11.70;;;8.20;;
12052;SDS011;6087;48.982;12.064;2022-11-23T03:54:42;13.00;;;8.80;;
12052;SDS011;6087;48.982;12.064;2022-11-23T03:57:09;10.97;;;8.80;;
12052;SDS011;6087;48.982;12.064;2022-11-23T03:59:36;11.10;;;8.40;;
12052;SDS011;6087;48.982;12.064;2022-11-23T04:02:03;11.40;;;9.27;;
12052;SDS011;6087;48.982;12.064;2022-11-23T04:04:32;15.07;;;8.70;;
12052;SDS011;6087;48.982;12.064;2022-11-23T04:06:59;11.00;;;8.80;;
12052;SDS011;6087;48.982;12.064;2022-11-23T04:09:27;13.17;;;8.33;;
12052;SDS011;6087;48.982;12.064;2022-11-23T04:11:54;12.60;;;9.23;;
12052;SDS011;6087;48.982;12.064;2022-11-23T04:14:21;10.23;;;8.00;;
12052;SDS011;6087;48.982;12.064;2022-11-23T04:16:48;12.70;;;8.97;;
12052;SDS011;6087;48.982;12.064;2022-11-23T04:19:15;10.30;;;8.40;;
12052;SDS011;6087;48.982;12.064;2022-11-23T04:21:42;10.53;;;8.33;;
12052;SDS011;6087;48.982;12.064;2022-11-23T04:24:09;10.20;;;8.93;;
12052;SDS011;6087;48.982;12.064;2022-11-23T04:26:37;9.70;;;7.63;;
12052;SDS011;6087;48.982;12.064;2022-11-23T04:29:04;11.43;;;8.57;;
12052;SDS011;6087;48.982;12.064;2022-11-23T04:31:32;13.00;;;8.70;;
12052;SDS011;6087;48.982;12.064;2022-11-23T04:34:00;10.00;;;8.33;;
12052;SDS011;6087;48.982;12.064;2022-11-23T04:36:27;11.90;;;8.40;;
12052;SDS011;6087;48.982;12.064;2022-11-23T04:38:54;10.23;;;8.37;;
12052;SDS011;6087;48.982;12.064;2022-11-23T04:41:21;11.63;;;8.17;;
12052;SDS011;6087;48.982;12.064;2022-11-23T04:43:50;10.70;;;8.23;;
12052;SDS011;6087;48.982;12.064;2022-11-23T04:46:17;11.57;;;8.53;;
12052;SDS011;6087;48.982;12.064;2022-11-23T04:48:44;12.13;;;8.63;;
12052;SDS011;6087;48.982;12.064;2022-11-23T04:51:11;11.13;;;8.63;;
12052;SDS011;6087;48.982;12.064;2022-11-23T04:53:38;11.77;;;8.47;;
12052;SDS011;6087;48.982;12.064;2022-11-23T04:56:05;8.83;;;7.50;;
12052;SDS011;6087;48.982;12.064;2022-11-23T04:58:33;13.70;;;8.17;;
12052;SDS011;6087;48.982;12.064;2022-11-23T05:01:02;9.93;;;7.93;;
12052;SDS011;6087;48.982;12.064;2022-11-23T05:03:30;11.00;;;8.50;;
12052;SDS011;6087;48.982;12.064;2022-11-23T05:05:59;9.67;;;8.20;;
12052;SDS011;6087;48.982;12.064;2022-11-23T05:08:26;9.47;;;8.40;;
12052;SDS011;6087;48.982;12.064;2022-11-23T05:10:53;10.20;;;8.53;;
12052;SDS011;6087;48.982;12.064;2022-11-23T05:13:20;12.03;;;7.77;;
12052;SDS011;6087;48.982;12.064;2022-11-23T05:15:47;10.43;;;7.73;;
12052;SDS011;6087;48.982;12.064;2022-11-23T05:18:15;12.70;;;8.80;;
12052;SDS011;6087;48.982;12.064;2022-11-23T05:20:42;9.67;;;7.97;;
12052;SDS011;6087;48.982;12.064;2022-11-23T05:23:10;10.30;;;8.47;;
12052;SDS011;6087;48.982;12.064;2022-11-23T05:25:37;12.57;;;7.83;;
12052;SDS011;6087;48.982;12.064;2022-11-23T05:28:04;10.60;;;8.47;;
12052;SDS011;6087;48.982;12.064;2022-11-23T05:30:31;16.03;;;8.60;;
12052;SDS011;6087;48.982;12.064;2022-11-23T05:32:59;10.87;;;8.23;;
12052;SDS011;6087;48.982;12.064;2022-11-23T05:35:28;12.33;;;7.77;;
12052;SDS011;6087;48.982;12.064;2022-11-23T05:37:55;10.47;;;7.83;;
12052;SDS011;6087;48.982;12.064;2022-11-23T05:40:22;12.60;;;7.23;;
12052;SDS011;6087;48.982;12.064;2022-11-23T05:42:53;14.00;;;8.17;;
12052;SDS011;6087;48.982;12.064;2022-11-23T05:45:20;8.97;;;7.17;;
12052;SDS011;6087;48.982;12.064;2022-11-23T05:47:48;11.73;;;7.90;;
12052;SDS011;6087;48.982;12.064;2022-11-23T05:50:16;8.53;;;7.17;;
12052;SDS011;6087;48.982;12.064;2022-11-23T05:52:45;15.93;;;8.03;;
12052;SDS011;6087;48.982;12.064;2022-11-23T05:55:12;11.50;;;8.13;;
12052;SDS011;6087;48.982;12.064;2022-11-23T05:57:39;14.83;;;7.10;;
12052;SDS011;6087;48.982;12.064;2022-11-23T06:00:06;10.60;;;6.50;;
12052;SDS011;6087;48.982;12.064;2022-11-23T06:02:35;17.57;;;7.57;;
12052;SDS011;6087;48.982;12.064;2022-11-23T06:05:02;12.13;;;7.33;;
12052;SDS011;6087;48.982;12.064;2022-11-23T06:07:30;14.37;;;7.20;;
12052;SDS011;6087;48.982;12.064;2022-11-23T06:09:59;9.03;;;7.30;;
12052;SDS011;6087;48.982;12.064;2022-11-23T06:12:27;10.50;;;7.67;;
12052;SDS011;6087;48.982;12.064;2022-11-23T06:14:54;10.73;;;7.93;;
12052;SDS011;6087;48.982;12.064;2022-11-23T06:17:21;15.17;;;7.93;;
12052;SDS011;6087;48.982;12.064;2022-11-23T06:19:48;9.57;;;7.17;;
12052;SDS011;6087;48.982;12.064;2022-11-23T06:22:15;10.23;;;7.83;;
12052;SDS011;6087;48.982;12.064;2022-11-23T06:24:42;13.17;;;7.07;;
12052;SDS011;6087;48.982;12.064;2022-11-23T06:27:10;12.93;;;7.43;;
12052;SDS011;6087;48.982;12.064;2022-11-23T06:29:41;9.70;;;8.57;;
12052;SDS011;6087;48.982;12.064;2022-11-23T06:32:07;25.87;;;9.63;;
12052;SDS011;6087;48.982;12.064;2022-11-23T06:34:34;13.53;;;9.17;;
12052;SDS011;6087;48.982;12.064;2022-11-23T06:37:01;15.63;;;7.57;;
12052;SDS011;6087;48.982;12.064;2022-11-23T06:39:29;8.43;;;6.40;;
12052;SDS011;6087;48.982;12.064;2022-11-23T06:41:55;15.67;;;7.70;;
12052;SDS011;6087;48.982;12.064;2022-11-23T06:44:24;8.07;;;7.13;;
12052;SDS011;6087;48.982;12.064;2022-11-23T06:46:51;9.30;;;7.07;;
12052;SDS011;6087;48.982;12.064;2022-11-23T06:49:18;13.23;;;7.60;;
12052;SDS011;6087;48.982;12.064;2022-11-23T06:51:45;13.57;;;7.33;;
12052;SDS011;6087;48.982;12.064;2022-11-23T06:54:13;17.73;;;7.30;;
12052;SDS011;6087;48.982;12.064;2022-11-23T06:56:40;12.20;;;7.83;;
12052;SDS011;6087;48.982;12.064;2022-11-23T06:59:07;10.57;;;7.57;;
12052;SDS011;6087;48.982;12.064;2022-11-23T07:01:35;13.50;;;8.17;;
12052;SDS011;6087;48.982;12.064;2022-11-23T07:04:02;10.50;;;8.47;;
12052;SDS011;6087;48.982;12.064;2022-11-23T07:06:29;11.37;;;8.10;;
12052;SDS011;6087;48.982;12.064;2022-11-23T07:08:56;9.77;;;8.17;;
12052;SDS011;6087;48.982;12.064;2022-11-23T07:11:23;10.57;;;8.23;;
12052;SDS011;6087;48.982;12.064;2022-11-23T07:13:50;9.80;;;8.80;;
12052;SDS011;6087;48.982;12.064;2022-11-23T07:16:17;15.23;;;8.37;;
12052;SDS011;6087;48.982;12.064;2022-11-23T07:18:45;11.07;;;8.13;;
12052;SDS011;6087;48.982;12.064;2022-11-23T07:21:12;11.67;;;8.30;;
12052;SDS011;6087;48.982;12.064;2022-11-23T07:23:39;9.93;;;7.77;;
12052;SDS011;6087;48.982;12.064;2022-11-23T07:26:06;12.27;;;7.93;;
12052;SDS011;6087;48.982;12.064;2022-11-23T07:28:33;10.47;;;6.80;;
12052;SDS011;6087;48.982;12.064;2022-11-23T07:31:01;8.63;;;7.77;;
12052;SDS011;6087;48.982;12.064;2022-11-23T07:33:28;10.63;;;7.80;;
12052;SDS011;6087;48.982;12.064;2022-11-23T07:35:59;11.10;;;7.77;;
12052;SDS011;6087;48.982;12.064;2022-11-23T07:38:26;13.03;;;8.30;;
12052;SDS011;6087;48.982;12.064;2022-11-23T07:40:53;13.67;;;8.33;;
12052;SDS011;6087;48.982;12.064;2022-11-23T07:43:22;11.27;;;7.93;;
12052;SDS011;6087;48.982;12.064;2022-11-23T07:45:49;13.33;;;8.47;;
12052;SDS011;6087;48.982;12.064;2022-11-23T07:48:16;10.90;;;8.57;;
12052;SDS011;6087;48.982;12.064;2022-11-23T07:50:43;13.87;;;8.10;;
12052;SDS011;6087;48.982;12.064;2022-11-23T07:53:12;10.70;;;8.47;;
12052;SDS011;6087;48.982;12.064;2022-11-23T07:55:39;10.60;;;8.10;;
12052;SDS011;6087;48.982;12.064;2022-11-23T07:58:06;10.43;;;8.97;;
12052;SDS011;6087;48.982;12.064;2022-11-23T08:00:33;24.70;;;9.87;;
12052;SDS011;6087;48.982;12.064;2022-11-23T08:03:00;10.37;;;8.37;;
12052;SDS011;6087;48.982;12.064;2022-11-23T08:05:27;11.40;;;8.93;;
12052;SDS011;6087;48.982;12.064;2022-11-23T08:07:57;13.03;;;9.77;;
12052;SDS011;6087;48.982;12.064;2022-11-23T08:10:26;11.20;;;8.73;;
12052;SDS011;6087;48.982;12.064;2022-11-23T08:12:55;14.80;;;9.53;;
12052;SDS011;6087;48.982;12.064;2022-11-23T08:15:23;12.83;;;9.37;;
12052;SDS011;6087;48.982;12.064;2022-11-23T08:17:53;11.53;;;9.03;;
12052;SDS011;6087;48.982;12.064;2022-11-23T08:20:21;15.47;;;11.00;;
12052;SDS011;6087;48.982;12.064;2022-11-23T08:22:48;12.97;;;10.07;;
12052;SDS011;6087;48.982;12.064;2022-11-23T08:25:15;12.23;;;10.40;;
12052;SDS011;6087;48.982;12.064;2022-11-23T08:27:43;12.77;;;9.90;;
12052;SDS011;6087;48.982;12.064;2022-11-23T08:30:10;12.37;;;9.53;;
12052;SDS011;6087;48.982;12.064;2022-11-23T08:32:38;13.47;;;11.00;;
12052;SDS011;6087;48.982;12.064;2022-11-23T08:35:05;14.07;;;10.37;;
12052;SDS011;6087;48.982;12.064;2022-11-23T08:37:33;13.03;;;10.13;;
12052;SDS011;6087;48.982;12.064;2022-11-23T08:39:59;16.43;;;11.57;;
12052;SDS011;6087;48.982;12.064;2022-11-23T08:42:27;14.63;;;10.43;;
12052;SDS011;6087;48.982;12.064;2022-11-23T08:44:55;15.10;;;10.37;;
12052;SDS011;6087;48.982;12.064;2022-11-23T08:47:24;15.97;;;10.40;;
12052;SDS011;6087;48.982;12.064;2022-11-23T08:49:51;16.77;;;10.60;;
12052;SDS011;6087;48.982;12.064;2022-11-23T08:52:18;16.17;;;11.00;;
12052;SDS011;6087;48.982;12.064;2022-11-23T08:54:45;17.47;;;11.03;;
12052;SDS011;6087;48.982;12.064;2022-11-23T08:57:12;14.17;;;11.00;;
12052;SDS011;6087;48.982;12.064;2022-11-23T08:59:39;13.17;;;10.40;;
12052;SDS011;6087;48.982;12.064;2022-11-23T09:02:07;13.63;;;10.30;;
12052;SDS011;6087;48.982;12.064;2022-11-23T09:04:35;14.77;;;11.13;;
12052;SDS011;6087;48.982;12.064;2022-11-23T09:07:02;14.63;;;10.97;;
12052;SDS011;6087;48.982;12.064;2022-11-23T09:09:29;14.47;;;10.47;;
12052;SDS011;6087;48.982;12.064;2022-11-23T09:11:56;17.27;;;12.00;;
12052;SDS011;6087;48.982;12.064;2022-11-23T09:14:23;12.03;;;9.87;;
12052;SDS011;6087;48.982;12.064;2022-11-23T09:16:51;14.30;;;10.07;;
12052;SDS011;6087;48.982;12.064;2022-11-23T09:19:20;12.97;;;10.70;;
12052;SDS011;6087;48.982;12.064;2022-11-23T09:21:47;11.70;;;10.33;;
12052;SDS011;6087;48.982;12.064;2022-11-23T09:24:14;14.60;;;10.87;;
12052;SDS011;6087;48.982;12.064;2022-11-23T09:26:41;15.20;;;10.97;;
12052;SDS011;6087;48.982;12.064;2022-11-23T09:29:08;17.23;;;12.03;;
12052;SDS011;6087;48.982;12.064;2022-11-23T09:31:36;14.27;;;11.77;;
12052;SDS011;6087;48.982;12.064;2022-11-23T09:34:04;14.93;;;11.47;;
12052;SDS011;6087;48.982;12.064;2022-11-23T09:36:33;16.40;;;11.20;;
12052;SDS011;6087;48.982;12.064;2022-11-23T09:39:00;15.40;;;12.23;;
12052;SDS011;6087;48.982;12.064;2022-11-23T09:41:40;13.67;;;11.40;;
12052;SDS011;6087;48.982;12.064;2022-11-23T09:44:20;18.20;;;11.70;;
12052;SDS011;6087;48.982;12.064;2022-11-23T09:46:55;16.60;;;11.57;;
12052;SDS011;6087;48.982;12.064;2022-11-23T09:49:32;14.73;;;11.10;;
12052;SDS011;6087;48.982;12.064;2022-11-23T09:52:09;13.63;;;11.40;;
12052;SDS011;6087;48.982;12.064;2022-11-23T09:54:41;14.73;;;10.77;;
12052;SDS011;6087;48.982;12.064;2022-11-23T09:57:11;13.17;;;10.77;;
12052;SDS011;6087;48.982;12.064;2022-11-23T09:59:42;12.03;;;10.50;;
12052;SDS011;6087;48.982;12.064;2022-11-23T10:02:16;14.53;;;11.40;;
12052;SDS011;6087;48.982;12.064;2022-11-23T10:04:46;14.43;;;11.40;;
12052;SDS011;6087;48.982;12.064;2022-11-23T10:07:20;12.70;;;10.17;;
12052;SDS011;6087;48.982;12.064;2022-11-23T10:10:00;15.37;;;10.97;;
12052;SDS011;6087;48.982;12.064;2022-11-23T10:12:40;12.20;;;10.23;;
12052;SDS011;6087;48.982;12.064;2022-11-23T10:15:17;15.03;;;11.20;;
12052;SDS011;6087;48.982;12.064;2022-11-23T10:17:52;14.13;;;10.93;;
12052;SDS011;6087;48.982;12.064;2022-11-23T10:20:36;12.33;;;10.50;;
12052;SDS011;6087;48.982;12.064;2022-11-23T10:23:16;12.83;;;10.70;;
12052;SDS011;6087;48.982;12.064;2022-11-23T10:25:49;12.47;;;10.50;;
12052;SDS011;6087;48.982;12.064;2022-11-23T10:28:18;14.97;;;10.77;;
12052;SDS011;6087;48.982;12.064;2022-11-23T10:30:47;16.77;;;11.17;;
12052;SDS011;6087;48.982;12.064;2022-11-23T10:33:20;15.30;;;10.63;;
12052;SDS011;6087;48.982;12.064;2022-11-23T10:35:51;16.60;;;11.57;;
12052;SDS011;6087;48.982;12.064;2022-11-23T10:38:20;16.27;;;12.17;;
12052;SDS011;6087;48.982;12.064;2022-11-23T10:40:54;14.03;;;11.30;;
12052;SDS011;6087;48.982;12.064;2022-11-23T10:43:27;18.57;;;12.07;;
12052;SDS011;6087;48.982;12.064;2022-11-23T10:48:50;16.10;;;11.67;;
12052;SDS011;6087;48.982;12.064;2022-11-23T10:51:19;15.13;;;12.30;;
12052;SDS011;6087;48.982;12.064;2022-11-23T10:53:54;15.57;;;12.27;;
12052;SDS011;6087;48.982;12.064;2022-11-23T10:56:24;15.93;;;12.57;;
12052;SDS011;6087;48.982;12.064;2022-11-23T10:58:51;18.00;;;12.97;;
12052;SDS011;6087;48.982;12.064;2022-11-23T11:01:19;16.10;;;13.07;;
12052;SDS011;6087;48.982;12.064;2022-11-23T11:03:48;16.37;;;13.20;;
12052;SDS011;6087;48.982;12.064;2022-11-23T11:06:20;17.90;;;13.20;;
12052;SDS011;6087;48.982;12.064;2022-11-23T11:08:49;18.67;;;13.70;;
12052;SDS011;6087;48.982;12.064;2022-11-23T11:11:24;16.17;;;13.37;;
12052;SDS011;6087;48.982;12.064;2022-11-23T11:16:46;17.10;;;12.83;;
12052;SDS011;6087;48.982;12.064;2022-11-23T11:19:25;17.50;;;14.37;;
12052;SDS011;6087;48.982;12.064;2022-11-23T11:21:53;18.23;;;13.93;;
12052;SDS011;6087;48.982;12.064;2022-11-23T11:24:22;16.63;;;14.03;;
12052;SDS011;6087;48.982;12.064;2022-11-23T11:26:58;17.80;;;13.87;;
12052;SDS011;6087;48.982;12.064;2022-11-23T11:29:29;17.80;;;14.00;;
12052;SDS011;6087;48.982;12.064;2022-11-23T11:31:58;17.77;;;12.73;;
12052;SDS011;6087;48.982;12.064;2022-11-23T11:34:29;15.93;;;12.20;;
12052;SDS011;6087;48.982;12.064;2022-11-23T11:37:09;16.97;;;13.10;;
12052;SDS011;6087;48.982;12.064;2022-11-23T11:39:44;16.47;;;12.37;;
12052;SDS011;6087;48.982;12.064;2022-11-23T11:42:17;15.67;;;13.10;;
12052;SDS011;6087;48.982;12.064;2022-11-23T11:44:46;16.67;;;13.37;;
12052;SDS011;6087;48.982;12.064;2022-11-23T11:47:20;18.83;;;13.60;;
12052;SDS011;6087;48.982;12.064;2022-11-23T11:49:53;17.37;;;13.97;;
12052;SDS011;6087;48.982;12.064;2022-11-23T11:52:25;17.57;;;14.10;;
12052;SDS011;6087;48.982;12.064;2022-11-23T11:54:55;17.50;;;14.33;;
12052;SDS011;6087;48.982;12.064;2022-11-23T11:57:33;17.53;;;13.33;;
12052;SDS011;6087;48.982;12.064;2022-11-23T12:00:06;19.77;;;14.17;;
12052;SDS011;6087;48.982;12.064;2022-11-23T12:02:38;18.23;;;13.07;;
12052;SDS011;6087;48.982;12.064;2022-11-23T12:05:16;16.80;;;14.23;;
12052;SDS011;6087;48.982;12.064;2022-11-23T12:07:49;19.07;;;15.20;;
12052;SDS011;6087;48.982;12.064;2022-11-23T12:10:23;17.90;;;14.23;;
12052;SDS011;6087;48.982;12.064;2022-11-23T12:12:55;21.33;;;14.90;;
12052;SDS011;6087;48.982;12.064;2022-11-23T12:15:23;18.97;;;14.50;;
12052;SDS011;6087;48.982;12.064;2022-11-23T12:18:06;21.47;;;14.33;;
12052;SDS011;6087;48.982;12.064;2022-11-23T12:20:46;17.03;;;13.43;;
12052;SDS011;6087;48.982;12.064;2022-11-23T12:23:25;19.47;;;14.00;;
12052;SDS011;6087;48.982;12.064;2022-11-23T12:26:07;17.93;;;14.63;;
12052;SDS011;6087;48.982;12.064;2022-11-23T12:31:44;15.60;;;12.77;;
12052;SDS011;6087;48.982;12.064;2022-11-23T12:34:20;18.37;;;12.97;;
12052;SDS011;6087;48.982;12.064;2022-11-23T12:37:05;12.60;;;10.80;;
12052;SDS011;6087;48.982;12.064;2022-11-23T12:39:58;13.03;;;11.70;;
12052;SDS011;6087;48.982;12.064;2022-11-23T12:42:38;13.07;;;10.83;;
12052;SDS011;6087;48.982;12.064;2022-11-23T12:45:14;11.83;;;10.53;;
12052;SDS011;6087;48.982;12.064;2022-11-23T12:47:51;14.03;;;11.20;;
12052;SDS011;6087;48.982;12.064;2022-11-23T12:50:27;11.60;;;10.23;;
12052;SDS011;6087;48.982;12.064;2022-11-23T12:53:05;15.47;;;12.07;;
12052;SDS011;6087;48.982;12.064;2022-11-23T12:55:45;12.63;;;11.07;;
12052;SDS011;6087;48.982;12.064;2022-11-23T12:58:20;12.97;;;10.83;;
12052;SDS011;6087;48.982;12.064;2022-11-23T13:00:53;10.67;;;9.00;;
12052;SDS011;6087;48.982;12.064;2022-11-23T13:03:31;10.43;;;9.15;;
12052;SDS011;6087;48.982;12.064;2022-11-23T13:09:38;8.82;;;7.93;;
12052;SDS011;6087;48.982;12.064;2022-11-23T13:12:19;11.02;;;7.25;;
12052;SDS011;6087;48.982;12.064;2022-11-23T13:15:00;9.18;;;8.00;;
12052;SDS011;6087;48.982;12.064;2022-11-23T13:17:36;9.35;;;8.40;;
12052;SDS011;6087;48.982;12.064;2022-11-23T13:20:14;9.35;;;7.78;;
12052;SDS011;6087;48.982;12.064;2022-11-23T13:22:53;8.70;;;7.68;;
12052;SDS011;6087;48.982;12.064;2022-11-23T13:25:23;8.45;;;7.65;;
12052;SDS011;6087;48.982;12.064;2022-11-23T13:27:55;8.35;;;7.38;;
12052;SDS011;6087;48.982;12.064;2022-11-23T13:30:25;11.38;;;8.20;;
12052;SDS011;6087;48.982;12.064;2022-11-23T13:32:59;8.80;;;7.97;;
12052;SDS011;6087;48.982;12.064;2022-11-23T13:35:47;9.25;;;7.57;;
12052;SDS011;6087;48.982;12.064;2022-11-23T13:38:24;9.63;;;8.32;;
12052;SDS011;6087;48.982;12.064;2022-11-23T13:40:52;9.73;;;8.73;;
12052;SDS011;6087;48.982;12.064;2022-11-23T13:43:20;9.60;;;8.55;;
12052;SDS011;6087;48.982;12.064;2022-11-23T13:46:18;9.65;;;8.60;;
12052;SDS011;6087;48.982;12.064;2022-11-23T13:48:49;10.82;;;9.80;;
12052;SDS011;6087;48.982;12.064;2022-11-23T13:51:22;12.18;;;9.65;;
12052;SDS011;6087;48.982;12.064;2022-11-23T13:53:51;11.15;;;10.15;;
12052;SDS011;6087;48.982;12.064;2022-11-23T13:56:25;12.65;;;9.77;;
12052;SDS011;6087;48.982;12.064;2022-11-23T13:59:22;11.30;;;10.20;;
12052;SDS011;6087;48.982;12.064;2022-11-23T14:01:57;10.45;;;9.43;;
12052;SDS011;6087;48.982;12.064;2022-11-23T14:04:26;11.55;;;10.43;;
12052;SDS011;6087;48.982;12.064;2022-11-23T14:06:55;10.38;;;9.38;;
12052;SDS011;6087;48.982;12.064;2022-11-23T14:09:28;11.07;;;9.77;;
12052;SDS011;6087;48.982;12.064;2022-11-23T14:12:07;12.05;;;10.82;;
12052;SDS011;6087;48.982;12.064;2022-11-23T14:14:46;11.45;;;10.15;;
12052;SDS011;6087;48.982;12.064;2022-11-23T14:20:41;10.50;;;9.40;;
12052;SDS011;6087;48.982;12.064;2022-11-23T14:23:28;11.68;;;9.98;;
12052;SDS011;6087;48.982;12.064;2022-11-23T14:26:19;12.13;;;10.07;;
12052;SDS011;6087;48.982;12.064;2022-11-23T14:28:57;13.15;;;10.15;;
12052;SDS011;6087;48.982;12.064;2022-11-23T14:31:48;10.73;;;9.55;;
12052;SDS011;6087;48.982;12.064;2022-11-23T14:34:27;11.88;;;10.68;;
12052;SDS011;6087;48.982;12.064;2022-11-23T14:37:02;11.73;;;10.18;;
12052;SDS011;6087;48.982;12.064;2022-11-23T14:42:28;12.00;;;9.37;;
12052;SDS011;6087;48.982;12.064;2022-11-23T14:44:56;11.37;;;9.87;;
12052;SDS011;6087;48.982;12.064;2022-11-23T14:47:29;12.07;;;10.37;;
12052;SDS011;6087;48.982;12.064;2022-11-23T14:49:57;11.13;;;9.90;;
12052;SDS011;6087;48.982;12.064;2022-11-23T14:52:26;11.67;;;10.23;;
12052;SDS011;6087;48.982;12.064;2022-11-23T14:54:56;15.23;;;10.83;;
12052;SDS011;6087;48.982;12.064;2022-11-23T14:57:26;12.53;;;10.40;;
12052;SDS011;6087;48.982;12.064;2022-11-23T14:59:55;12.67;;;10.60;;
12052;SDS011;6087;48.982;12.064;2022-11-23T15:02:26;16.73;;;12.10;;
12052;SDS011;6087;48.982;12.064;2022-11-23T15:05:01;16.17;;;11.87;;
12052;SDS011;6087;48.982;12.064;2022-11-23T15:07:38;15.33;;;12.77;;